Terminal Aerodrome Forecast
Issued by NWS

Home | Current Version | Previous Version | Text Only | Print | Product List | Glossary On
Versions: 1 2 3 4 5 6 7 8 9 10 11 12 13 14 15
000
FTUS43 KIND 241125
TAFBMG
TAF
KBMG 241125Z 2412/2512 19012KT P6SM BKN200 WS020/21045KT
     FM241400 20012G24KT P6SM BKN040
     FM241500 20012G25KT P6SM BKN020
     FM241900 20013G22KT P6SM BKN040
     FM250000 18010KT P6SM BKN070
     FM251000 16009KT P6SM OVC080 WS015/19030KT
      AMD LTD TO CLD VIS AND WIND TIL 241300=

USA.gov is the U.S. government's official web portal to all federal, state and local government web resources and services.